createdAt,value
2019-06-26T00:01:53.905Z,100359.46
2019-06-26T00:04:21.364Z,100361.92
2019-06-26T00:06:48.795Z,100362.17
2019-06-26T00:09:16.242Z,100364.91
2019-06-26T00:11:43.618Z,100362.75
2019-06-26T00:14:10.913Z,100361.91
2019-06-26T00:16:38.382Z,100366.80
2019-06-26T00:19:05.683Z,100367.09
2019-06-26T00:21:33.029Z,100367.38
2019-06-26T00:24:00.291Z,100369.00
2019-06-26T00:26:27.627Z,100369.83
2019-06-26T00:28:54.886Z,100372.55
2019-06-26T00:31:22.515Z,100375.55
2019-06-26T00:33:49.838Z,100378.59
2019-06-26T00:36:17.136Z,100371.19
2019-06-26T00:38:44.463Z,100372.58
2019-06-26T00:41:11.730Z,100374.75
2019-06-26T00:43:42.622Z,100377.73
2019-06-26T00:46:08.251Z,100371.19
2019-06-26T00:48:35.642Z,100385.70
2019-06-26T00:51:02.919Z,100380.52
2019-06-26T00:53:30.208Z,100380.50
2019-06-26T00:55:57.492Z,100385.42
2019-06-26T00:58:24.904Z,100385.70
2019-06-26T01:00:55.116Z,100393.59
2019-06-26T01:03:22.583Z,100390.63
2019-06-26T01:05:49.847Z,100395.27
2019-06-26T01:08:18.149Z,100395.80
2019-06-26T01:10:45.459Z,100402.64
2019-06-26T01:13:12.803Z,100407.55
2019-06-26T01:15:40.332Z,100406.13
2019-06-26T01:18:07.680Z,100401.20
2019-06-26T01:20:35.015Z,100406.57
2019-06-26T01:23:02.389Z,100406.57
2019-06-26T01:25:29.654Z,100405.72
2019-06-26T01:27:57.106Z,100411.06
2019-06-26T01:30:24.636Z,100410.19
2019-06-26T01:32:52.008Z,100418.06
2019-06-26T01:35:19.392Z,100418.06
2019-06-26T01:37:46.693Z,100420.54
2019-06-26T01:40:14.047Z,100427.27
2019-06-26T01:42:41.361Z,100429.25
2019-06-26T01:45:08.809Z,100433.30
2019-06-26T01:47:36.090Z,100433.30
2019-06-26T01:50:03.617Z,100435.19
2019-06-26T01:52:30.968Z,100432.99
2019-06-26T01:54:58.237Z,100431.34
2019-06-26T01:57:25.544Z,100438.98
2019-06-26T01:59:52.892Z,100438.98
2019-06-26T02:02:20.146Z,100424.80
2019-06-26T02:04:47.427Z,100440.64
2019-06-26T02:07:14.670Z,100453.42
2019-06-26T02:09:41.923Z,100453.42
2019-06-26T02:12:09.170Z,100443.79
2019-06-26T02:14:36.567Z,100452.30
2019-06-26T02:17:03.823Z,100449.75
2019-06-26T02:19:31.201Z,100449.36
2019-06-26T02:21:58.433Z,100451.27
2019-06-26T02:24:25.931Z,100459.67
2019-06-26T02:26:53.210Z,100459.67
2019-06-26T02:29:20.525Z,100454.03
2019-06-26T02:31:47.799Z,100454.03
2019-06-26T02:34:15.044Z,100458.83
2019-06-26T02:36:42.308Z,100456.45
2019-06-26T02:39:09.589Z,100468.81
2019-06-26T02:41:36.947Z,100470.14
2019-06-26T02:44:04.343Z,100473.89
2019-06-26T02:46:31.676Z,100470.38
2019-06-26T02:48:59.036Z,100465.83
2019-06-26T02:51:26.276Z,100476.09
2019-06-26T02:53:53.561Z,100468.58
2019-06-26T02:56:20.920Z,100475.05
2019-06-26T02:58:48.226Z,100468.55
2019-06-26T03:01:15.683Z,100476.25
2019-06-26T03:03:43.074Z,100475.92
2019-06-26T03:06:10.360Z,100485.53
2019-06-26T03:08:37.847Z,100479.53
2019-06-26T03:11:05.252Z,100486.14
2019-06-26T03:13:32.661Z,100489.81
2019-06-26T03:16:00.081Z,100498.88
2019-06-26T03:18:27.325Z,100495.94
2019-06-26T03:20:54.975Z,100498.72
2019-06-26T03:23:22.242Z,100501.20
2019-06-26T03:25:49.511Z,100505.09
2019-06-26T03:28:16.849Z,100503.33
2019-06-26T03:30:44.445Z,100508.37
2019-06-26T03:33:11.876Z,100514.59
2019-06-26T03:35:40.843Z,100507.03
2019-06-26T03:38:09.543Z,100514.19
2019-06-26T03:40:37.088Z,100517.44
2019-06-26T03:43:04.397Z,100514.89
2019-06-26T03:45:31.743Z,100521.19
2019-06-26T03:47:59.080Z,100521.30
2019-06-26T03:50:26.463Z,100524.32
2019-06-26T03:52:53.860Z,100539.37
2019-06-26T03:55:21.116Z,100534.75
2019-06-26T03:57:48.425Z,100542.71
2019-06-26T04:00:21.527Z,100544.77
2019-06-26T04:02:48.782Z,100539.03
2019-06-26T04:05:16.026Z,100543.75
2019-06-26T04:07:43.284Z,100544.69
2019-06-26T04:10:11.085Z,100551.84
2019-06-26T04:12:38.463Z,100553.78
2019-06-26T04:15:06.031Z,100552.93
2019-06-26T04:17:33.402Z,100551.89
2019-06-26T04:20:00.672Z,100559.89
2019-06-26T04:22:27.990Z,100564.87
2019-06-26T04:24:56.243Z,100568.48
2019-06-26T04:27:23.516Z,100569.16
2019-06-26T04:29:50.796Z,100567.89
2019-06-26T04:32:18.077Z,100564.20
2019-06-26T04:34:45.442Z,100567.23
2019-06-26T04:37:12.731Z,100567.23
2019-06-26T04:39:40.015Z,100571.56
2019-06-26T04:42:07.265Z,100575.28
2019-06-26T04:44:34.783Z,100578.02
2019-06-26T04:47:02.091Z,100580.88
2019-06-26T04:49:29.386Z,100583.63
2019-06-26T04:51:57.651Z,100583.63
2019-06-26T04:54:25.004Z,100579.57
2019-06-26T04:56:52.415Z,100576.58
2019-06-26T04:59:21.550Z,100584.81
2019-06-26T05:01:50.370Z,100590.38
2019-06-26T05:04:21.156Z,100578.88
2019-06-26T05:06:48.448Z,100585.47
2019-06-26T05:09:15.688Z,100585.47
2019-06-26T05:11:43.096Z,100588.88
2019-06-26T05:14:10.350Z,100588.88
2019-06-26T05:16:37.685Z,100591.66
2019-06-26T05:19:04.951Z,100595.31
2019-06-26T05:21:32.169Z,100594.59
2019-06-26T05:23:59.463Z,100594.59
2019-06-26T05:26:26.708Z,100595.73
2019-06-26T05:28:54.055Z,100599.59
2019-06-26T05:31:21.334Z,100602.63
2019-06-26T05:33:48.547Z,100600.48
2019-06-26T05:36:15.866Z,100608.48
2019-06-26T05:38:43.128Z,100602.19
2019-06-26T05:41:10.398Z,100610.68
2019-06-26T05:43:37.639Z,100618.34
2019-06-26T05:46:04.851Z,100621.09
2019-06-26T05:48:32.271Z,100613.91
2019-06-26T05:50:59.727Z,100617.71
2019-06-26T05:53:26.977Z,100618.30
2019-06-26T05:55:54.209Z,100625.13
2019-06-26T05:58:21.729Z,100623.48
2019-06-26T06:00:49.142Z,100623.77
2019-06-26T06:03:16.378Z,100628.33
2019-06-26T06:05:43.614Z,100641.75
2019-06-26T06:08:10.806Z,100634.08
2019-06-26T06:10:38.061Z,100640.82
2019-06-26T06:13:05.271Z,100643.38
2019-06-26T06:15:33.482Z,100647.48
2019-06-26T06:18:00.718Z,100647.17
2019-06-26T06:20:35.604Z,100645.80
2019-06-26T06:23:02.827Z,100651.16
2019-06-26T06:25:30.036Z,100656.63
2019-06-26T06:27:57.271Z,100658.84
2019-06-26T06:30:24.500Z,100660.05
2019-06-26T06:32:51.755Z,100660.31
2019-06-26T06:35:18.959Z,100667.59
2019-06-26T06:37:46.155Z,100671.82
2019-06-26T06:40:13.498Z,100667.66
2019-06-26T06:42:40.716Z,100673.77
2019-06-26T06:45:10.193Z,100679.56
2019-06-26T06:47:37.402Z,100677.34
2019-06-26T06:50:05.029Z,100680.76
2019-06-26T06:52:32.289Z,100683.68
2019-06-26T06:54:59.961Z,100678.31
2019-06-26T06:57:27.444Z,100679.38
2019-06-26T06:59:54.691Z,100677.22
2019-06-26T07:02:22.093Z,100677.53
2019-06-26T07:04:49.336Z,100678.39
2019-06-26T07:07:16.822Z,100679.44
2019-06-26T07:09:44.128Z,100681.12
2019-06-26T07:12:11.440Z,100686.22
2019-06-26T07:14:38.912Z,100678.45
2019-06-26T07:17:19.208Z,100683.80
2019-06-26T07:19:35.332Z,100681.23
2019-06-26T07:22:02.586Z,100680.27
2019-06-26T07:24:30.179Z,100679.59
2019-06-26T07:26:57.574Z,100681.05
2019-06-26T07:29:24.853Z,100689.91
2019-06-26T07:31:52.158Z,100686.86
2019-06-26T07:34:19.606Z,100689.53
2019-06-26T07:36:47.029Z,100687.08
2019-06-26T07:39:14.349Z,100693.75
2019-06-26T07:41:41.643Z,100696.45
2019-06-26T07:44:08.955Z,100691.05
2019-06-26T07:46:36.239Z,100696.66
2019-06-26T07:49:03.501Z,100698.74
2019-06-26T07:51:30.757Z,100704.52
2019-06-26T07:53:58.038Z,100705.33
2019-06-26T07:56:25.315Z,100706.05
2019-06-26T07:58:52.620Z,100711.48
2019-06-26T08:01:19.843Z,100714.25
2019-06-26T08:03:47.080Z,100716.20
2019-06-26T08:06:14.292Z,100712.66
2019-06-26T08:08:41.500Z,100721.59
2019-06-26T08:11:08.780Z,100722.25
2019-06-26T08:13:36.043Z,100725.24
2019-06-26T08:16:03.335Z,100725.86
2019-06-26T08:18:30.591Z,100738.98
2019-06-26T08:21:11.537Z,100739.60
2019-06-26T08:23:27.182Z,100739.52
2019-06-26T08:25:54.503Z,100736.26
2019-06-26T08:28:21.746Z,100740.78
2019-06-26T08:30:49.076Z,100741.43
2019-06-26T08:33:16.406Z,100733.06
2019-06-26T08:35:43.659Z,100739.63
2019-06-26T08:38:15.354Z,100737.79
2019-06-26T08:40:40.163Z,100739.11
2019-06-26T08:43:07.410Z,100735.07
2019-06-26T08:45:34.665Z,100735.02
2019-06-26T08:48:16.797Z,100733.61
2019-06-26T08:50:32.141Z,100733.22
2019-06-26T08:52:59.421Z,100737.27
2019-06-26T08:55:26.667Z,100739.47
2019-06-26T08:57:53.939Z,100743.18
2019-06-26T09:00:21.445Z,100746.50
2019-06-26T09:02:48.709Z,100745.87
2019-06-26T09:05:16.129Z,100742.16
2019-06-26T09:07:43.423Z,100752.46
2019-06-26T09:10:10.678Z,100749.69
2019-06-26T09:12:38.083Z,100750.63
2019-06-26T09:15:05.448Z,100756.40
2019-06-26T09:17:32.848Z,100753.95
2019-06-26T09:20:00.128Z,100755.83
2019-06-26T09:22:27.418Z,100752.93
2019-06-26T09:24:54.712Z,100765.64
2019-06-26T09:27:21.970Z,100757.70
2019-06-26T09:29:49.249Z,100760.61
2019-06-26T09:32:20.069Z,100760.46
2019-06-26T09:34:47.385Z,100765.93
2019-06-26T09:37:14.649Z,100767.59
2019-06-26T09:39:41.938Z,100766.37
2019-06-26T09:42:09.174Z,100765.44
2019-06-26T09:44:36.496Z,100769.87
2019-06-26T09:47:04.786Z,100766.28
2019-06-26T09:49:32.047Z,100775.97
2019-06-26T09:51:59.328Z,100770.77
2019-06-26T09:54:26.620Z,100774.83
2019-06-26T09:56:53.896Z,100774.97
2019-06-26T09:59:21.192Z,100769.58
2019-06-26T10:01:48.499Z,100771.34
2019-06-26T10:04:15.758Z,100767.78
2019-06-26T10:06:43.327Z,100768.20
2019-06-26T10:09:11.708Z,100775.48
2019-06-26T10:11:39.005Z,100774.88
2019-06-26T10:14:06.413Z,100769.55
2019-06-26T10:16:33.860Z,100772.03
2019-06-26T10:19:10.020Z,100766.94
2019-06-26T10:21:30.326Z,100760.31
2019-06-26T10:23:57.603Z,100771.65
2019-06-26T10:26:24.877Z,100772.06
2019-06-26T10:28:52.495Z,100775.05
2019-06-26T10:31:19.780Z,100768.36
2019-06-26T10:33:47.057Z,100774.22
2019-06-26T10:36:14.303Z,100777.19
2019-06-26T10:38:41.601Z,100773.46
2019-06-26T10:41:08.857Z,100772.47
2019-06-26T10:43:36.120Z,100769.21
2019-06-26T10:46:03.600Z,100773.47
2019-06-26T10:48:30.995Z,100765.14
2019-06-26T10:50:59.143Z,100763.37
2019-06-26T10:53:27.047Z,100759.95
2019-06-26T10:55:54.439Z,100766.37
2019-06-26T10:58:22.486Z,100756.80
2019-06-26T11:00:51.621Z,100747.36
2019-06-26T11:03:19.459Z,100748.30
2019-06-26T11:05:47.438Z,100751.20
2019-06-26T11:08:14.873Z,100756.28
2019-06-26T11:10:42.229Z,100747.55
2019-06-26T11:13:09.520Z,100748.77
2019-06-26T11:15:36.866Z,100749.95
2019-06-26T11:18:04.564Z,100750.19
2019-06-26T11:20:32.254Z,100740.45
2019-06-26T11:22:59.928Z,100742.89
2019-06-26T11:25:27.321Z,100747.69
2019-06-26T11:27:54.743Z,100746.95
2019-06-26T11:30:22.934Z,100746.45
2019-06-26T11:32:50.516Z,100749.36
2019-06-26T11:35:17.945Z,100752.50
2019-06-26T11:37:45.411Z,100758.79
2019-06-26T11:40:13.531Z,100760.36
2019-06-26T11:42:40.817Z,100758.17
2019-06-26T11:45:09.885Z,100755.85
2019-06-26T11:47:37.478Z,100760.02
2019-06-26T11:50:05.143Z,100759.56
2019-06-26T11:52:32.563Z,100755.27
2019-06-26T11:55:08.156Z,100758.98
2019-06-26T11:57:35.490Z,100757.39
2019-06-26T12:00:03.707Z,100757.47
2019-06-26T12:02:31.059Z,100760.30
2019-06-26T12:04:58.393Z,100755.45
2019-06-26T12:07:25.670Z,100753.91
2019-06-26T12:09:53.151Z,100756.91
2019-06-26T12:12:20.524Z,100760.88
2019-06-26T12:14:47.791Z,100763.53
2019-06-26T12:17:15.098Z,100758.78
2019-06-26T12:19:42.438Z,100761.32
2019-06-26T12:22:09.679Z,100760.34
2019-06-26T12:24:37.110Z,100761.42
2019-06-26T12:27:05.758Z,100759.00
2019-06-26T12:29:35.093Z,100761.22
2019-06-26T12:32:03.114Z,100753.89
2019-06-26T12:34:30.780Z,100748.11
2019-06-26T12:36:58.100Z,100751.95
2019-06-26T12:39:25.372Z,100747.64
2019-06-26T12:41:52.660Z,100749.17
2019-06-26T12:44:20.032Z,100755.66
2019-06-26T12:46:47.402Z,100747.41
2019-06-26T12:49:14.737Z,100748.56
2019-06-26T12:51:42.009Z,100754.12
2019-06-26T12:54:09.282Z,100747.11
2019-06-26T12:56:36.529Z,100743.08
2019-06-26T12:59:03.826Z,100750.45
2019-06-26T13:01:31.096Z,100750.98
2019-06-26T13:03:58.427Z,100746.73
2019-06-26T13:06:25.664Z,100751.26
2019-06-26T13:08:52.942Z,100751.14
2019-06-26T13:11:20.225Z,100753.18
2019-06-26T13:14:01.478Z,100751.31
2019-06-26T13:16:16.655Z,100751.39
2019-06-26T13:18:43.918Z,100749.98
2019-06-26T13:21:11.220Z,100745.09
2019-06-26T13:23:38.647Z,100756.65
2019-06-26T13:26:05.998Z,100758.98
2019-06-26T13:28:33.296Z,100758.92
2019-06-26T13:31:00.629Z,100759.14
2019-06-26T13:33:27.907Z,100758.20
2019-06-26T13:35:55.202Z,100766.63
2019-06-26T13:38:22.469Z,100763.76
2019-06-26T13:40:49.693Z,100761.88
2019-06-26T13:43:17.054Z,100766.19
2019-06-26T13:45:44.326Z,100765.52
2019-06-26T13:48:11.579Z,100760.81
2019-06-26T13:50:39.006Z,100763.01
2019-06-26T13:53:06.266Z,100767.94
2019-06-26T13:55:33.531Z,100765.66
2019-06-26T13:58:00.772Z,100771.33
2019-06-26T14:00:28.048Z,100766.11
2019-06-26T14:02:55.279Z,100773.02
2019-06-26T14:05:22.564Z,100776.66
2019-06-26T14:07:49.848Z,100773.05
2019-06-26T14:10:17.309Z,100777.00
2019-06-26T14:12:44.609Z,100773.92
2019-06-26T14:15:12.595Z,100775.77
2019-06-26T14:17:39.841Z,100776.09
2019-06-26T14:20:07.563Z,100773.45
2019-06-26T14:22:34.969Z,100778.59
2019-06-26T14:25:02.251Z,100778.11
2019-06-26T14:27:30.604Z,100771.21
2019-06-26T14:29:57.861Z,100781.35
2019-06-26T14:32:25.179Z,100775.52
2019-06-26T14:34:52.410Z,100780.86
2019-06-26T14:37:19.690Z,100779.67
2019-06-26T14:39:46.970Z,100784.33
2019-06-26T14:42:14.339Z,100778.95
2019-06-26T14:44:41.788Z,100774.33
2019-06-26T14:47:09.066Z,100775.27
2019-06-26T14:49:36.276Z,100774.00
2019-06-26T14:52:03.847Z,100773.98
2019-06-26T14:54:31.207Z,100776.53
2019-06-26T14:56:58.535Z,100783.27
2019-06-26T14:59:25.854Z,100777.77
2019-06-26T15:01:53.149Z,100771.91
2019-06-26T15:04:20.374Z,100778.30
2019-06-26T15:06:47.842Z,100778.18
2019-06-26T15:09:15.098Z,100773.75
2019-06-26T15:11:42.347Z,100768.66
2019-06-26T15:14:09.644Z,100781.34
2019-06-26T15:16:36.895Z,100771.79
2019-06-26T15:19:04.266Z,100772.71
2019-06-26T15:21:31.524Z,100769.47
2019-06-26T15:23:58.842Z,100774.30
2019-06-26T15:26:26.084Z,100771.72
2019-06-26T15:28:53.382Z,100775.64
2019-06-26T15:31:20.667Z,100768.16
2019-06-26T15:33:47.954Z,100770.16
2019-06-26T15:36:15.212Z,100771.66
2019-06-26T15:38:42.510Z,100766.55
2019-06-26T15:41:09.961Z,100769.37
2019-06-26T15:43:37.324Z,100774.20
2019-06-26T15:46:04.898Z,100762.99
2019-06-26T15:48:32.241Z,100770.71
2019-06-26T15:50:59.535Z,100764.53
2019-06-26T15:53:26.799Z,100772.73
2019-06-26T15:55:54.100Z,100773.27
2019-06-26T15:58:21.333Z,100773.56
2019-06-26T16:00:48.659Z,100786.09
2019-06-26T16:03:16.115Z,100780.57
2019-06-26T16:05:43.371Z,100791.84
2019-06-26T16:08:10.622Z,100794.06
2019-06-26T16:10:37.881Z,100799.16
2019-06-26T16:13:05.138Z,100801.97
2019-06-26T16:15:33.003Z,100802.97
2019-06-26T16:18:08.628Z,100799.50
2019-06-26T16:20:36.054Z,100803.28
2019-06-26T16:23:03.357Z,100811.84
2019-06-26T16:25:30.637Z,100816.69
2019-06-26T16:28:05.277Z,100817.21
2019-06-26T16:30:27.145Z,100818.27
2019-06-26T16:32:56.987Z,100816.67
2019-06-26T16:35:25.588Z,100820.55
2019-06-26T16:37:52.974Z,100819.17
2019-06-26T16:40:20.260Z,100818.25
2019-06-26T16:42:47.509Z,100817.94
2019-06-26T16:45:16.037Z,100817.25
2019-06-26T16:47:43.300Z,100820.02
2019-06-26T16:50:10.617Z,100818.40
2019-06-26T16:52:48.617Z,100822.92
2019-06-26T16:55:07.134Z,100827.87
2019-06-26T16:57:35.520Z,100817.36
2019-06-26T17:00:09.642Z,100822.19
2019-06-26T17:02:33.417Z,100826.19
2019-06-26T17:05:00.889Z,100827.20
2019-06-26T17:07:28.304Z,100826.30
2019-06-26T17:09:55.535Z,100829.21
2019-06-26T17:12:22.828Z,100835.80
2019-06-26T17:14:50.276Z,100830.28
2019-06-26T17:17:17.546Z,100835.81
2019-06-26T17:19:44.867Z,100845.38
2019-06-26T17:22:12.094Z,100843.30
2019-06-26T17:24:39.671Z,100845.44
2019-06-26T17:27:07.950Z,100846.63
2019-06-26T17:29:35.188Z,100846.66
2019-06-26T17:32:02.456Z,100859.48
2019-06-26T17:34:29.941Z,100865.24
2019-06-26T17:36:57.271Z,100870.52
2019-06-26T17:39:24.502Z,100872.16
2019-06-26T17:41:52.014Z,100876.26
2019-06-26T17:44:19.548Z,100873.52
2019-06-26T17:46:46.822Z,100878.48
2019-06-26T17:49:14.076Z,100877.65
2019-06-26T17:51:41.281Z,100879.02
2019-06-26T17:54:08.578Z,100872.16
2019-06-26T17:56:35.831Z,100881.47
2019-06-26T17:59:03.096Z,100879.83
2019-06-26T18:01:30.338Z,100881.37
2019-06-26T18:03:57.651Z,100886.05
2019-06-26T18:06:25.113Z,100882.25
2019-06-26T18:08:52.434Z,100888.28
2019-06-26T18:11:19.717Z,100892.16
2019-06-26T18:13:46.970Z,100894.91
2019-06-26T18:16:14.225Z,100894.91
2019-06-26T18:18:41.438Z,100899.30
2019-06-26T18:21:08.705Z,100904.22
2019-06-26T18:23:38.487Z,100910.81
2019-06-26T18:26:12.888Z,100923.39
2019-06-26T18:28:35.526Z,100923.27
2019-06-26T18:31:02.788Z,100924.80
2019-06-26T18:33:30.102Z,100916.06
2019-06-26T18:35:57.399Z,100917.49
2019-06-26T18:38:24.839Z,100920.92
2019-06-26T18:40:52.216Z,100925.02
2019-06-26T18:43:19.483Z,100932.88
2019-06-26T18:45:46.971Z,100926.04
2019-06-26T18:48:14.425Z,100939.11
2019-06-26T18:50:41.956Z,100928.95
2019-06-26T18:53:09.570Z,100921.37
2019-06-26T18:55:37.159Z,100921.14
2019-06-26T18:58:04.538Z,100909.32
2019-06-26T19:00:32.155Z,100920.28
2019-06-26T19:02:59.477Z,100921.30
2019-06-26T19:05:26.863Z,100922.75
2019-06-26T19:07:54.275Z,100922.77
2019-06-26T19:10:21.522Z,100922.77
2019-06-26T19:12:48.825Z,100925.90
2019-06-26T19:15:16.109Z,100941.13
2019-06-26T19:17:43.427Z,100941.13
2019-06-26T19:20:10.933Z,100942.67
2019-06-26T19:22:38.354Z,100943.45
2019-06-26T19:25:06.004Z,100945.41
2019-06-26T19:27:33.268Z,100944.53
2019-06-26T19:30:00.557Z,100949.71
2019-06-26T19:32:29.194Z,100955.16
2019-06-26T19:34:56.441Z,100954.93
2019-06-26T19:37:23.670Z,100961.11
2019-06-26T19:39:50.960Z,100964.61
2019-06-26T19:42:18.203Z,100972.95
2019-06-26T19:44:45.469Z,100980.18
2019-06-26T19:47:12.723Z,100976.47
2019-06-26T19:49:39.985Z,100985.95
2019-06-26T19:52:08.305Z,100989.50
2019-06-26T19:54:36.257Z,100988.36
2019-06-26T19:57:03.578Z,100999.48
2019-06-26T19:59:30.863Z,100996.87
2019-06-26T20:01:58.117Z,101003.47
2019-06-26T20:04:25.367Z,101007.20
2019-06-26T20:06:52.686Z,101008.36
2019-06-26T20:09:19.967Z,101010.17
2019-06-26T20:11:47.259Z,101010.73
2019-06-26T20:14:15.548Z,101015.02
2019-06-26T20:16:42.870Z,101015.27
2019-06-26T20:19:10.219Z,101021.45
2019-06-26T20:21:37.511Z,101022.48
2019-06-26T20:24:04.759Z,101024.97
2019-06-26T20:26:32.092Z,101030.94
2019-06-26T20:28:59.319Z,101035.88
2019-06-26T20:31:26.599Z,101036.67
2019-06-26T20:33:53.889Z,101025.17
2019-06-26T20:36:21.188Z,101030.98
2019-06-26T20:38:48.444Z,101024.20
2019-06-26T20:41:15.701Z,101024.38
2019-06-26T20:43:42.970Z,101024.19
2019-06-26T20:46:10.250Z,101033.00
2019-06-26T20:48:37.564Z,101034.67
2019-06-26T20:51:04.819Z,101034.20
2019-06-26T20:53:33.102Z,101042.09
2019-06-26T20:56:00.372Z,101047.67
2019-06-26T20:58:27.746Z,101044.75
2019-06-26T21:00:55.065Z,101041.39
2019-06-26T21:03:22.357Z,101037.28
2019-06-26T21:05:49.616Z,101036.17
2019-06-26T21:08:16.926Z,101032.32
2019-06-26T21:10:44.372Z,101033.59
2019-06-26T21:13:11.718Z,101029.78
2019-06-26T21:15:38.963Z,101038.96
2019-06-26T21:18:06.382Z,101045.14
2019-06-26T21:20:33.633Z,101041.40
2019-06-26T21:23:00.879Z,101033.75
2019-06-26T21:25:28.148Z,101040.40
2019-06-26T21:27:55.444Z,101040.58
2019-06-26T21:30:22.714Z,101048.11
2019-06-26T21:32:50.012Z,101047.98
2019-06-26T21:35:17.267Z,101053.65
2019-06-26T21:37:44.575Z,101049.47
2019-06-26T21:40:11.932Z,101059.09
2019-06-26T21:42:39.193Z,101056.03
2019-06-26T21:45:07.350Z,101058.24
2019-06-26T21:47:34.642Z,101062.33
2019-06-26T21:50:01.945Z,101060.84
2019-06-26T21:52:30.278Z,101056.41
2019-06-26T21:54:57.515Z,101063.69
2019-06-26T21:57:43.203Z,101063.78
2019-06-26T22:00:30.299Z,101076.26
2019-06-26T22:03:16.590Z,101077.09
2019-06-26T22:05:45.731Z,101082.72
2019-06-26T22:08:19.624Z,101085.52
2019-06-26T22:10:50.639Z,101084.89
2019-06-26T22:13:21.644Z,101080.44
2019-06-26T22:15:50.922Z,101088.63
2019-06-26T22:18:18.570Z,101086.33
2019-06-26T22:20:45.976Z,101086.97
2019-06-26T22:23:13.311Z,101097.84
2019-06-26T22:25:50.428Z,101094.28
2019-06-26T22:28:09.907Z,101099.56
2019-06-26T22:30:37.294Z,101097.49
2019-06-26T22:33:04.724Z,101101.98
2019-06-26T22:35:32.021Z,101112.64
2019-06-26T22:37:59.400Z,101114.86
2019-06-26T22:40:26.767Z,101109.81
2019-06-26T22:42:54.088Z,101108.86
2019-06-26T22:45:21.388Z,101116.05
2019-06-26T22:47:48.757Z,101125.91
2019-06-26T22:50:16.137Z,101122.03
2019-06-26T22:52:43.428Z,101124.66
2019-06-26T22:55:10.749Z,101127.53
2019-06-26T22:57:38.048Z,101133.13
2019-06-26T23:00:05.776Z,101130.86
2019-06-26T23:02:34.838Z,101134.91
2019-06-26T23:05:02.168Z,101133.88
2019-06-26T23:07:29.522Z,101128.65
2019-06-26T23:09:56.780Z,101137.94
2019-06-26T23:12:24.170Z,101132.19
2019-06-26T23:14:51.393Z,101129.72
2019-06-26T23:17:18.666Z,101133.95
2019-06-26T23:19:45.925Z,101136.61
2019-06-26T23:22:13.150Z,101136.23
2019-06-26T23:24:40.438Z,101137.30
2019-06-26T23:27:07.677Z,101134.42
2019-06-26T23:29:34.960Z,101143.22
2019-06-26T23:32:03.353Z,101138.06
2019-06-26T23:34:30.890Z,101131.87
2019-06-26T23:36:58.953Z,101135.37
2019-06-26T23:39:26.194Z,101141.82
2019-06-26T23:41:53.497Z,101140.39
2019-06-26T23:44:20.743Z,101138.84
2019-06-26T23:46:47.991Z,101140.43
2019-06-26T23:49:15.246Z,101144.86
2019-06-26T23:51:42.760Z,101141.53
2019-06-26T23:54:10.123Z,101144.67
2019-06-26T23:56:40.775Z,101149.25
2019-06-26T23:59:06.695Z,101145.69
